Time;durP1;ratioP1;P1;durP2;ratioP2;P2;SDS_P1;SDS_P2;PMS_P1;PMS_P2;Temp;Humidity;BMP_temperature;BMP_pressure;BME280_temperature;BME280_humidity;BME280_pressure;Samples;Min_cycle;Max_cycle;Signal;HPM_P1;HPM_P2
2022/09/27 00:00:03;;;;;;;;;;;;;;;15.90;86.89;98855.00;4972694;28;910;-61
2022/09/27 00:02:30;;;;;;;;;;;;;;;15.89;87.04;98850.63;4972637;28;1142;-60
2022/09/27 00:04:57;;;;;;;;;;;;;;;15.87;87.21;98850.31;4972603;28;1894;-61
2022/09/27 00:07:23;;;;;;;;;;;;;;;15.92;87.29;98841.38;4972671;28;827;-61
2022/09/27 00:09:50;;;;;;;;;;;;;;;15.96;87.05;98846.78;4972583;28;849;-61
2022/09/27 00:12:16;;;;;;;;;;;;;;;15.96;86.97;98844.78;4972651;28;882;-61
2022/09/27 00:14:43;;;;;;;;;;;;;;;15.95;87.16;98842.44;4971143;28;1209;-60
2022/09/27 00:17:10;;;;;;;;;;;;;;;15.91;87.25;98843.38;4972576;28;812;-61
2022/09/27 00:19:36;;;;;;;;;;;;;;;15.92;87.35;98844.94;4972540;28;874;-60
2022/09/27 00:22:02;;;;;;;;;;;;;;;15.92;87.30;98844.94;4972510;28;815;-60
2022/09/27 00:24:30;;;;;;;;;;;;;;;15.93;87.41;98843.69;4972552;28;866;-60
2022/09/27 00:26:56;;;;;;;;;;;;;;;15.97;87.16;98835.16;4972450;28;1958;-60
2022/09/27 00:29:23;;;;;;;;;;;;;;;15.97;86.97;98832.38;4972659;28;871;-61
2022/09/27 00:31:49;;;;;;;;;;;;;;;15.93;87.05;98831.75;4972435;28;1015;-61
2022/09/27 00:34:24;;;;;;;;;;;;;;;15.84;87.17;98831.75;4972410;28;800;-60
2022/09/27 00:36:51;;;;;;;;;;;;;;;15.73;87.40;98818.28;4982223;28;1218;-61
2022/09/27 00:39:18;;;;;;;;;;;;;;;15.66;87.73;98822.09;4991742;28;858;-60
2022/09/27 00:41:45;;;;;;;;;;;;;;;15.62;88.07;98823.47;4991729;28;867;-60
2022/09/27 00:44:28;;;;;;;;;;;;;;;15.61;88.07;98819.16;4991548;28;855;-61
2022/09/27 00:46:57;;;;;;;;;;;;;;;15.63;88.02;98819.47;4991662;28;1973;-60
2022/09/27 00:49:28;;;;;;;;;;;;;;;15.69;88.07;98814.84;4974132;28;1170;-61
2022/09/27 00:51:56;;;;;;;;;;;;;;;15.70;87.95;98806.03;4991646;28;804;-60
2022/09/27 00:54:24;;;;;;;;;;;;;;;15.68;88.01;98802.13;4991648;28;831;-60
2022/09/27 00:56:52;;;;;;;;;;;;;;;15.67;88.15;98790.22;4991742;28;894;-61
2022/09/27 00:59:28;;;;;;;;;;;;;;;15.64;88.06;98801.50;4991641;28;811;-61
2022/09/27 01:01:55;;;;;;;;;;;;;;;15.55;88.52;98787.56;4994430;28;823;-61
2022/09/27 01:04:24;;;;;;;;;;;;;;;15.53;88.74;98793.59;4995036;28;890;-61
2022/09/27 01:06:51;;;;;;;;;;;;;;;15.50;88.94;98800.09;4994961;28;1886;-61
2022/09/27 01:09:19;;;;;;;;;;;;;;;15.50;88.91;98802.88;4977424;28;1358;-60
2022/09/27 01:11:50;;;;;;;;;;;;;;;15.49;89.40;98779.81;4994813;28;890;-61
2022/09/27 01:14:26;;;;;;;;;;;;;;;15.51;89.18;98782.13;4994830;28;815;-61
2022/09/27 01:16:58;;;;;;;;;;;;;;;15.51;89.09;98785.72;4995169;28;798;-61
2022/09/27 01:19:27;;;;;;;;;;;;;;;15.52;89.29;98794.84;4994768;28;788;-61
2022/09/27 01:22:06;;;;;;;;;;;;;;;15.53;89.34;98790.81;4994659;28;949;-61
2022/09/27 01:24:36;;;;;;;;;;;;;;;15.53;89.42;98793.59;4994618;28;851;-61
2022/09/27 01:27:21;;;;;;;;;;;;;;;15.50;89.32;98789.72;4994622;28;1878;-61
2022/09/27 01:29:47;;;;;;;;;;;;;;;15.39;89.58;98785.84;4994797;28;827;-60
2022/09/27 01:32:18;;;;;;;;;;;;;;;15.26;90.12;98789.50;4994601;28;865;-60
2022/09/27 01:34:53;;;;;;;;;;;;;;;15.12;90.70;98795.63;4994749;28;922;-60
2022/09/27 01:37:38;;;;;;;;;;;;;;;15.00;91.37;98788.16;4994234;28;1257;-61
2022/09/27 01:40:13;;;;;;;;;;;;;;;14.95;91.92;98780.41;4994410;28;823;-60
2022/09/27 01:42:49;;;;;;;;;;;;;;;14.94;92.18;98774.09;4994245;28;886;-61
2022/09/27 01:45:22;;;;;;;;;;;;;;;15.01;92.14;98778.59;4994410;28;1910;-60
2022/09/27 01:47:54;;;;;;;;;;;;;;;15.13;91.86;98765.78;4994179;28;905;-60
2022/09/27 01:50:27;;;;;;;;;;;;;;;15.22;91.58;98777.75;4994143;28;879;-60
2022/09/27 01:53:00;;;;;;;;;;;;;;;15.32;91.31;98786.91;4994187;28;914;-61
2022/09/27 01:55:29;;;;;;;;;;;;;;;15.41;91.11;98798.06;4994063;28;886;-60
2022/09/27 01:58:02;;;;;;;;;;;;;;;15.45;90.89;98797.91;4994147;28;839;-60
2022/09/27 02:00:28;;;;;;;;;;;;;;;15.46;90.66;98799.47;4976517;28;1192;-60
2022/09/27 02:03:00;;;;;;;;;;;;;;;15.46;91.04;98807.81;4993908;28;841;-60
2022/09/27 02:05:30;;;;;;;;;;;;;;;15.43;90.91;98795.59;4993846;28;1890;-60
2022/09/27 02:08:01;;;;;;;;;;;;;;;15.44;90.98;98794.34;4993876;28;827;-60
2022/09/27 02:10:30;;;;;;;;;;;;;;;15.44;91.00;98791.56;4993954;28;806;-60
2022/09/27 02:13:15;;;;;;;;;;;;;;;15.46;91.12;98796.66;4993199;28;826;-60
2022/09/27 02:15:54;;;;;;;;;;;;;;;15.50;90.83;98788.94;4993904;28;878;-60
2022/09/27 02:18:28;;;;;;;;;;;;;;;15.55;90.59;98791.13;4993642;28;855;-60
2022/09/27 02:20:57;;;;;;;;;;;;;;;15.57;90.50;98780.28;4994233;28;772;-61
2022/09/27 02:23:23;;;;;;;;;;;;;;;15.58;90.74;98773.50;4993653;28;846;-60
2022/09/27 02:25:52;;;;;;;;;;;;;;;15.62;90.60;98770.53;4993789;28;1975;-60
2022/09/27 02:28:19;;;;;;;;;;;;;;;15.67;90.45;98779.06;4993353;28;969;-60
2022/09/27 02:30:45;;;;;;;;;;;;;;;15.69;90.44;98793.31;4993464;28;862;-60
2022/09/27 02:33:12;;;;;;;;;;;;;;;15.67;90.42;98795.03;4993823;28;987;-60
2022/09/27 02:35:39;;;;;;;;;;;;;;;15.64;90.61;98782.00;4993303;28;1163;-61
2022/09/27 02:38:06;;;;;;;;;;;;;;;15.62;90.46;98785.28;4993528;28;783;-60
2022/09/27 02:40:34;;;;;;;;;;;;;;;15.64;90.51;98784.78;4993288;28;890;-60
2022/09/27 02:43:02;;;;;;;;;;;;;;;15.69;90.42;98776.59;4993163;28;1170;-60
2022/09/27 02:45:35;;;;;;;;;;;;;;;15.75;89.99;98768.44;4975664;28;1910;-61
2022/09/27 02:48:26;;;;;;;;;;;;;;;15.78;89.96;98766.75;4993105;28;866;-61
2022/09/27 02:50:59;;;;;;;;;;;;;;;15.75;89.95;98762.88;4985237;28;1444;-61
2022/09/27 02:53:39;;;;;;;;;;;;;;;15.68;90.06;98761.13;4993240;28;823;-60
2022/09/27 02:56:25;;;;;;;;;;;;;;;15.66;90.28;98760.03;4975457;28;1265;-60
2022/09/27 02:59:06;;;;;;;;;;;;;;;15.59;90.35;98743.63;4992929;28;795;-61
2022/09/27 03:01:48;;;;;;;;;;;;;;;15.52;90.76;98744.72;4993041;28;859;-61
2022/09/27 03:04:22;;;;;;;;;;;;;;;15.45;91.14;98740.22;4992811;28;879;-61
2022/09/27 03:06:50;;;;;;;;;;;;;;;15.35;91.41;98743.44;4992704;28;1953;-60
2022/09/27 03:09:20;;;;;;;;;;;;;;;15.26;91.84;98747.00;4992754;28;870;-61
2022/09/27 03:11:48;;;;;;;;;;;;;;;15.23;92.13;98750.66;4992549;28;835;-60
2022/09/27 03:14:15;;;;;;;;;;;;;;;15.24;92.24;98738.31;4992898;28;862;-60
2022/09/27 03:16:42;;;;;;;;;;;;;;;15.26;92.48;98725.47;4992631;28;807;-60
2022/09/27 03:19:09;;;;;;;;;;;;;;;15.29;92.11;98730.13;4992565;28;901;-61
2022/09/27 03:21:36;;;;;;;;;;;;;;;15.27;92.13;98732.59;4992703;28;815;-61
2022/09/27 03:24:02;;;;;;;;;;;;;;;15.27;92.10;98726.25;4991735;28;859;-60
2022/09/27 03:26:28;;;;;;;;;;;;;;;15.24;92.04;98725.16;4992494;28;1945;-60
2022/09/27 03:28:55;;;;;;;;;;;;;;;15.17;92.29;98725.47;4992325;28;843;-61
2022/09/27 03:31:21;;;;;;;;;;;;;;;15.13;92.61;98715.69;4992264;28;1171;-61
2022/09/27 03:33:48;;;;;;;;;;;;;;;15.06;92.83;98709.22;4992337;28;957;-60
2022/09/27 03:36:15;;;;;;;;;;;;;;;15.02;93.29;98713.34;4992267;28;1206;-60
2022/09/27 03:38:42;;;;;;;;;;;;;;;15.02;93.45;98708.56;4992349;28;886;-60
2022/09/27 03:41:08;;;;;;;;;;;;;;;15.04;93.36;98716.44;4974925;28;898;-61
2022/09/27 03:43:35;;;;;;;;;;;;;;;15.06;93.36;98719.53;4992159;28;870;-61
2022/09/27 03:46:01;;;;;;;;;;;;;;;15.05;93.43;98734.72;4992216;28;1981;-61
2022/09/27 03:48:30;;;;;;;;;;;;;;;15.02;93.52;98727.25;4992110;28;812;-60
2022/09/27 03:50:56;;;;;;;;;;;;;;;15.00;94.03;98724.97;4992185;28;875;-61
2022/09/27 03:53:23;;;;;;;;;;;;;;;15.02;93.80;98732.81;4992042;28;827;-60
2022/09/27 03:55:49;;;;;;;;;;;;;;;14.99;94.00;98734.53;4992234;28;847;-60
2022/09/27 03:58:16;;;;;;;;;;;;;;;14.99;93.96;98740.09;4992110;28;877;-60
2022/09/27 04:00:44;;;;;;;;;;;;;;;15.06;93.98;98739.03;4992195;28;843;-61
2022/09/27 04:03:11;;;;;;;;;;;;;;;15.14;93.75;98731.94;4992352;28;836;-61
2022/09/27 04:05:38;;;;;;;;;;;;;;;15.21;93.55;98728.88;4991999;28;1947;-60
2022/09/27 04:08:06;;;;;;;;;;;;;;;15.22;93.30;98715.75;4992148;28;854;-61
2022/09/27 04:10:33;;;;;;;;;;;;;;;15.23;93.21;98720.81;4991813;28;889;-60
2022/09/27 04:13:00;;;;;;;;;;;;;;;15.27;93.27;98707.53;4992177;28;831;-60
2022/09/27 04:15:27;;;;;;;;;;;;;;;15.31;93.21;98701.81;4992109;28;878;-60
2022/09/27 04:17:54;;;;;;;;;;;;;;;15.37;93.03;98697.19;4991997;28;840;-60
2022/09/27 04:20:20;;;;;;;;;;;;;;;15.48;92.75;98693.97;4992229;28;897;-60
2022/09/27 04:22:47;;;;;;;;;;;;;;;15.59;92.23;98702.63;4991895;28;866;-61
2022/09/27 04:25:14;;;;;;;;;;;;;;;15.65;92.02;98719.50;4991871;28;1953;-61
2022/09/27 04:27:44;;;;;;;;;;;;;;;15.58;92.18;98726.16;4991869;28;882;-60
2022/09/27 04:30:12;;;;;;;;;;;;;;;15.43;92.20;98716.88;4991930;28;891;-61
2022/09/27 04:32:44;;;;;;;;;;;;;;;15.27;93.21;98717.91;4992132;28;912;-61
2022/09/27 04:37:56;;;;;;;;;;;;;;;15.08;93.98;98700.38;4995459;28;1510;-61
2022/09/27 04:40:23;;;;;;;;;;;;;;;14.98;94.53;98701.59;4995411;28;832;-61
2022/09/27 04:42:50;;;;;;;;;;;;;;;14.90;94.94;98695.56;4995595;28;874;-60
2022/09/27 04:45:17;;;;;;;;;;;;;;;14.90;95.40;98707.44;4995307;28;1910;-60
2022/09/27 04:47:45;;;;;;;;;;;;;;;15.04;95.52;98714.47;4995375;28;890;-60
2022/09/27 04:50:12;;;;;;;;;;;;;;;15.22;95.17;98718.53;4995367;28;839;-61
2022/09/27 04:52:39;;;;;;;;;;;;;;;15.43;94.73;98714.06;4995233;28;907;-61
2022/09/27 04:55:07;;;;;;;;;;;;;;;15.68;93.91;98711.00;4995272;28;803;-61
2022/09/27 04:57:35;;;;;;;;;;;;;;;15.89;93.34;98705.75;4995401;28;820;-61
2022/09/27 05:00:02;;;;;;;;;;;;;;;16.05;92.72;98708.22;4995232;28;878;-61
2022/09/27 05:02:29;;;;;;;;;;;;;;;16.24;92.11;98711.00;4995139;28;843;-61
2022/09/27 05:33:22;;;;;;;;;;;;;;;17.38;87.17;98709.59;5478846;23;1582;-60
2022/09/27 05:35:52;;;;;;;;;;;;;;;17.46;86.86;98716.38;5014067;28;834;-59
2022/09/27 05:38:19;;;;;;;;;;;;;;;17.57;86.20;98713.78;5014069;28;790;-60
2022/09/27 05:40:49;;;;;;;;;;;;;;;17.73;85.62;98693.81;5013953;28;885;-59
2022/09/27 05:43:16;;;;;;;;;;;;;;;17.93;85.02;98706.41;5013922;28;791;-59
2022/09/27 05:45:43;;;;;;;;;;;;;;;18.14;84.28;98684.94;4996014;28;1918;-59
2022/09/27 05:48:11;;;;;;;;;;;;;;;18.36;83.33;98687.34;5013281;28;893;-59
2022/09/27 05:50:38;;;;;;;;;;;;;;;18.74;81.88;98691.25;5013758;28;842;-60
2022/09/27 05:53:05;;;;;;;;;;;;;;;19.24;79.67;98702.41;5013717;28;878;-60
2022/09/27 05:55:31;;;;;;;;;;;;;;;19.72;77.37;98702.03;5013689;28;865;-60
2022/09/27 05:58:00;;;;;;;;;;;;;;;20.27;74.90;98693.91;5013629;28;807;-60
2022/09/27 06:00:27;;;;;;;;;;;;;;;20.79;72.82;98702.28;5013599;28;846;-60
2022/09/27 06:02:57;;;;;;;;;;;;;;;21.15;69.03;98686.69;5013438;28;862;-59
2022/09/27 06:05:25;;;;;;;;;;;;;;;21.29;68.08;98690.59;5013444;28;1886;-59
2022/09/27 06:07:51;;;;;;;;;;;;;;;21.35;66.99;98691.38;5013750;28;861;-59
2022/09/27 06:10:18;;;;;;;;;;;;;;;21.32;67.01;98697.25;5013376;28;815;-59
2022/09/27 06:12:45;;;;;;;;;;;;;;;21.36;66.65;98695.75;5013385;28;806;-59
2022/09/27 06:15:11;;;;;;;;;;;;;;;21.23;66.57;98678.56;5013403;28;795;-59
2022/09/27 06:17:38;;;;;;;;;;;;;;;21.06;66.71;98678.47;4995732;28;1300;-60
2022/09/27 06:20:05;;;;;;;;;;;;;;;21.27;65.77;98681.13;5013190;28;826;-59
2022/09/27 06:22:31;;;;;;;;;;;;;;;21.72;64.55;98670.88;5013200;28;795;-58
2022/09/27 06:24:58;;;;;;;;;;;;;;;22.40;62.29;98683.03;5013069;28;881;-58
2022/09/27 06:27:25;;;;;;;;;;;;;;;22.70;61.11;98667.66;5013140;28;881;-58
2022/09/27 06:29:52;;;;;;;;;;;;;;;22.69;60.69;98680.22;5012996;28;877;-59
2022/09/27 06:32:19;;;;;;;;;;;;;;;22.80;60.04;98680.19;5013048;28;1021;-59
2022/09/27 06:34:45;;;;;;;;;;;;;;;23.12;59.10;98685.53;5012767;28;1314;-59
2022/09/27 06:37:12;;;;;;;;;;;;;;;23.10;58.66;98679.66;4995255;28;1319;-59
2022/09/27 06:39:39;;;;;;;;;;;;;;;22.82;59.27;98680.44;5012837;28;879;-59
2022/09/27 06:42:06;;;;;;;;;;;;;;;22.50;60.66;98674.31;5012799;28;862;-59
2022/09/27 06:44:33;;;;;;;;;;;;;;;22.59;60.54;98680.44;5012699;28;953;-59
2022/09/27 06:47:00;;;;;;;;;;;;;;;23.20;59.33;98684.47;5012701;28;1965;-59
2022/09/27 06:49:26;;;;;;;;;;;;;;;23.65;57.70;98683.56;5012694;28;858;-59
2022/09/27 06:51:54;;;;;;;;;;;;;;;23.69;57.58;98683.28;5012690;28;811;-59
2022/09/27 06:54:21;;;;;;;;;;;;;;;24.00;56.50;98685.72;5012566;28;893;-59
2022/09/27 06:56:48;;;;;;;;;;;;;;;24.46;55.75;98675.59;5012632;28;799;-59
2022/09/27 07:01:59;;;;;;;;;;;;;;;25.73;52.24;98660.41;5012837;28;637;-59
2022/09/27 07:04:26;;;;;;;;;;;;;;;26.47;49.98;98647.47;5012426;28;835;-58
2022/09/27 07:06:53;;;;;;;;;;;;;;;26.94;48.26;98646.16;5012417;28;1934;-59
2022/09/27 07:09:20;;;;;;;;;;;;;;;27.36;47.05;98652.09;5012345;28;823;-58
2022/09/27 07:11:47;;;;;;;;;;;;;;;27.15;47.53;98671.81;5012429;28;826;-59
2022/09/27 07:14:15;;;;;;;;;;;;;;;25.77;50.56;98664.47;5012316;28;870;-59
2022/09/27 07:16:42;;;;;;;;;;;;;;;24.78;53.84;98669.44;5012301;28;823;-59
2022/09/27 07:19:10;;;;;;;;;;;;;;;24.04;56.17;98674.88;5012082;28;862;-58
2022/09/27 07:21:36;;;;;;;;;;;;;;;23.84;57.70;98687.31;5012172;28;901;-59
2022/09/27 07:24:03;;;;;;;;;;;;;;;24.19;57.57;98670.94;5012094;28;787;-59
2022/09/27 07:26:30;;;;;;;;;;;;;;;24.33;57.27;98661.34;5012059;28;1886;-60
2022/09/27 07:28:58;;;;;;;;;;;;;;;24.48;57.45;98657.38;5011992;28;1274;-58
2022/09/27 07:31:25;;;;;;;;;;;;;;;24.49;57.25;98662.50;5011909;28;1151;-60
2022/09/27 07:33:52;;;;;;;;;;;;;;;24.19;58.14;98656.81;5011881;28;1283;-59
2022/09/27 07:36:18;;;;;;;;;;;;;;;24.08;58.76;98668.22;5012003;28;894;-58
2022/09/27 07:38:46;;;;;;;;;;;;;;;24.16;58.56;98664.28;5011960;28;886;-59
2022/09/27 07:41:13;;;;;;;;;;;;;;;23.92;59.07;98664.97;5012266;28;807;-59
2022/09/27 07:43:42;;;;;;;;;;;;;;;23.55;60.58;98662.56;5011964;28;814;-59
2022/09/27 07:46:10;;;;;;;;;;;;;;;23.48;60.90;98660.31;5011832;28;1974;-60
2022/09/27 07:48:36;;;;;;;;;;;;;;;23.39;61.44;98664.94;5012049;28;810;-59
2022/09/27 07:51:06;;;;;;;;;;;;;;;23.50;61.48;98661.31;5011819;28;842;-59
2022/09/27 07:53:33;;;;;;;;;;;;;;;23.71;60.87;98661.72;5011799;28;870;-59
2022/09/27 07:56:00;;;;;;;;;;;;;;;23.80;60.77;98657.84;5012056;28;894;-59
2022/09/27 07:58:27;;;;;;;;;;;;;;;23.58;61.47;98647.44;5011693;28;806;-59
2022/09/27 08:00:55;;;;;;;;;;;;;;;23.58;61.76;98650.25;5011620;28;803;-59
2022/09/27 08:03:22;;;;;;;;;;;;;;;23.42;62.33;98655.44;5011698;28;858;-59
2022/09/27 08:05:48;;;;;;;;;;;;;;;23.10;63.12;98657.09;5011767;28;1959;-59
2022/09/27 08:08:16;;;;;;;;;;;;;;;22.86;64.37;98652.78;4994010;28;1236;-59
2022/09/27 08:10:46;;;;;;;;;;;;;;;22.90;64.66;98649.72;5014184;28;830;-60
2022/09/27 08:16:14;;;;;;;;;;;;;;;22.99;64.52;98641.72;5015620;28;614;-59
2022/09/27 08:18:41;;;;;;;;;;;;;;;23.23;64.54;98620.66;5015631;28;866;-59
2022/09/27 08:21:08;;;;;;;;;;;;;;;23.57;63.51;98626.16;5015489;28;854;-59
2022/09/27 08:23:35;;;;;;;;;;;;;;;23.71;63.11;98621.47;5015360;28;858;-59
2022/09/27 08:26:03;;;;;;;;;;;;;;;23.88;62.24;98630.63;5015296;28;1886;-59
2022/09/27 08:28:30;;;;;;;;;;;;;;;23.90;61.61;98624.44;5015338;28;794;-59
2022/09/27 08:30:59;;;;;;;;;;;;;;;23.77;61.98;98620.19;5015228;28;810;-59
2022/09/27 08:33:26;;;;;;;;;;;;;;;23.55;62.46;98631.56;5015276;28;1171;-59
2022/09/27 08:35:53;;;;;;;;;;;;;;;23.26;63.35;98621.69;5015387;28;862;-60
2022/09/27 08:38:21;;;;;;;;;;;;;;;23.08;64.15;98606.88;5015450;28;819;-60
2022/09/27 08:40:56;;;;;;;;;;;;;;;22.96;64.52;98608.97;5015035;28;814;-60
2022/09/27 08:43:32;;;;;;;;;;;;;;;23.02;64.34;98604.09;5015160;28;838;-60
2022/09/27 08:46:18;;;;;;;;;;;;;;;23.10;64.10;98607.13;5015029;28;1914;-59
2022/09/27 08:48:49;;;;;;;;;;;;;;;23.17;63.98;98603.00;5014970;28;850;-59
2022/09/27 08:51:15;;;;;;;;;;;;;;;23.25;63.98;98598.38;5014904;28;846;-59
2022/09/27 08:53:46;;;;;;;;;;;;;;;23.47;63.54;98602.38;5015082;28;822;-59
2022/09/27 08:56:14;;;;;;;;;;;;;;;23.54;62.99;98593.38;5014709;28;795;-59
2022/09/27 08:58:47;;;;;;;;;;;;;;;23.44;63.38;98593.66;5014668;28;877;-60
2022/09/27 09:01:15;;;;;;;;;;;;;;;23.57;63.29;98593.06;5014876;28;818;-59
2022/09/27 09:03:49;;;;;;;;;;;;;;;23.59;63.10;98587.69;5014659;28;850;-60
2022/09/27 09:06:25;;;;;;;;;;;;;;;23.73;62.50;98596.34;5014788;28;1960;-60
2022/09/27 09:09:00;;;;;;;;;;;;;;;23.70;61.80;98577.63;5014713;28;959;-59
2022/09/27 09:14:57;;;;;;;;;;;;;;;24.15;60.34;98585.78;4935163;29;1430;-59
2022/09/27 09:17:47;;;;;;;;;;;;;;;24.35;59.57;98574.06;4934913;29;843;-59
2022/09/27 09:20:31;;;;;;;;;;;;;;;24.15;59.51;98585.78;4934842;29;956;-59
2022/09/27 09:23:09;;;;;;;;;;;;;;;24.11;59.56;98585.28;4933993;29;819;-60
2022/09/27 09:25:54;;;;;;;;;;;;;;;24.39;58.81;98596.38;4934681;29;1949;-58
2022/09/27 09:28:39;;;;;;;;;;;;;;;24.59;57.79;98584.63;4934757;29;847;-59
2022/09/27 09:31:11;;;;;;;;;;;;;;;24.44;57.94;98589.88;4934659;29;889;-59
2022/09/27 09:33:42;;;;;;;;;;;;;;;24.75;57.22;98576.50;4934448;29;1108;-59
2022/09/27 09:36:12;;;;;;;;;;;;;;;24.89;56.89;98586.63;4934712;29;819;-59
2022/09/27 09:38:42;;;;;;;;;;;;;;;24.76;56.96;98589.34;4934415;29;1037;-59
2022/09/27 09:41:10;;;;;;;;;;;;;;;24.69;57.02;98578.63;4934403;29;788;-59
2022/09/27 09:43:47;;;;;;;;;;;;;;;24.79;56.71;98572.13;4934456;29;851;-59
2022/09/27 09:46:37;;;;;;;;;;;;;;;24.58;57.24;98554.88;5005948;28;1969;-58
2022/09/27 09:49:14;;;;;;;;;;;;;;;24.34;57.85;98557.63;5003767;28;1444;-59
2022/09/27 09:51:50;;;;;;;;;;;;;;;24.23;58.44;98570.56;5013836;28;846;-58
2022/09/27 09:54:26;;;;;;;;;;;;;;;24.39;57.89;98576.59;5013803;28;795;-59
2022/09/27 09:56:59;;;;;;;;;;;;;;;24.57;57.43;98558.97;5013730;28;810;-59
2022/09/27 09:59:29;;;;;;;;;;;;;;;24.52;57.15;98559.06;5013639;28;853;-59
2022/09/27 10:01:59;;;;;;;;;;;;;;;24.16;58.16;98556.28;5013580;28;838;-59
2022/09/27 10:04:32;;;;;;;;;;;;;;;23.90;58.90;98554.69;5013612;28;815;-58
2022/09/27 10:07:00;;;;;;;;;;;;;;;23.86;59.33;98550.63;5013575;28;1966;-59
2022/09/27 10:09:27;;;;;;;;;;;;;;;23.90;59.62;98537.75;5013476;28;878;-59
2022/09/27 10:11:53;;;;;;;;;;;;;;;23.82;59.78;98531.91;5013785;28;850;-58
2022/09/27 10:14:20;;;;;;;;;;;;;;;23.62;60.08;98543.59;5013564;28;787;-59
2022/09/27 10:16:48;;;;;;;;;;;;;;;23.39;61.11;98540.13;5013546;28;795;-59
2022/09/27 10:19:21;;;;;;;;;;;;;;;23.28;62.00;98538.16;5013490;28;799;-60
2022/09/27 10:21:49;;;;;;;;;;;;;;;23.30;62.28;98535.59;4995691;28;1173;-59
2022/09/27 10:24:24;;;;;;;;;;;;;;;23.49;61.94;98530.06;4995563;28;1316;-59
2022/09/27 10:26:56;;;;;;;;;;;;;;;23.62;61.50;98529.50;5013111;28;1898;-59
2022/09/27 10:29:33;;;;;;;;;;;;;;;23.70;60.96;98516.31;5013298;28;869;-59
2022/09/27 10:32:02;;;;;;;;;;;;;;;23.93;60.23;98504.91;5012850;28;1531;-59
2022/09/27 10:34:29;;;;;;;;;;;;;;;24.04;59.86;98499.16;4995142;28;1240;-59
2022/09/27 10:37:16;;;;;;;;;;;;;;;24.19;59.19;98495.94;5012905;28;795;-59
2022/09/27 10:39:46;;;;;;;;;;;;;;;24.40;58.23;98496.22;5012861;28;854;-58
2022/09/27 10:42:23;;;;;;;;;;;;;;;24.44;57.70;98494.63;5012892;28;818;-59
2022/09/27 10:44:51;;;;;;;;;;;;;;;24.40;57.88;98499.81;5012824;28;838;-58
2022/09/27 10:47:21;;;;;;;;;;;;;;;24.28;56.92;98494.81;5012714;28;1934;-59
2022/09/27 10:49:51;;;;;;;;;;;;;;;24.17;56.85;98478.75;5012764;28;807;-59
2022/09/27 10:52:19;;;;;;;;;;;;;;;24.14;57.29;98491.13;5012671;28;1008;-58
2022/09/27 10:54:54;;;;;;;;;;;;;;;24.12;57.20;98486.00;5012632;28;807;-59
2022/09/27 10:57:22;;;;;;;;;;;;;;;24.03;57.67;98492.00;5012469;28;834;-58
2022/09/27 10:59:54;;;;;;;;;;;;;;;23.95;58.24;98497.44;5012732;28;851;-59
2022/09/27 11:02:23;;;;;;;;;;;;;;;23.86;58.51;98500.59;5012514;28;843;-59
2022/09/27 11:05:07;;;;;;;;;;;;;;;23.86;58.60;98497.03;5012514;28;830;-59
2022/09/27 11:07:35;;;;;;;;;;;;;;;23.92;58.63;98492.06;5012381;28;1878;-59
2022/09/27 11:10:19;;;;;;;;;;;;;;;24.03;58.38;98489.94;5012428;28;766;-59
2022/09/27 11:12:44;;;;;;;;;;;;;;;24.14;58.37;98468.53;5013130;28;798;-59
2022/09/27 11:15:17;;;;;;;;;;;;;;;24.19;58.61;98462.06;5012275;28;906;-59
2022/09/27 11:17:50;;;;;;;;;;;;;;;24.23;58.09;98466.13;4994659;28;1433;-59
2022/09/27 11:20:17;;;;;;;;;;;;;;;24.22;57.81;98458.94;5012326;28;866;-59
2022/09/27 11:22:58;;;;;;;;;;;;;;;24.25;58.11;98454.31;5012129;28;819;-59
2022/09/27 11:25:40;;;;;;;;;;;;;;;24.39;58.39;98450.31;5012237;28;1968;-59
2022/09/27 11:28:07;;;;;;;;;;;;;;;24.68;57.60;98444.34;5011975;28;834;-58
2022/09/27 11:30:46;;;;;;;;;;;;;;;25.32;56.24;98447.31;5012095;28;806;-58
2022/09/27 11:33:30;;;;;;;;;;;;;;;26.81;51.88;98434.34;5012195;28;1283;-59
2022/09/27 11:35:59;;;;;;;;;;;;;;;27.82;48.26;98419.09;5012086;28;870;-58
2022/09/27 11:38:32;;;;;;;;;;;;;;;28.41;47.56;98432.78;5011964;28;909;-59
2022/09/27 11:41:17;;;;;;;;;;;;;;;28.40;46.24;98431.25;5011957;28;830;-59
2022/09/27 11:44:06;;;;;;;;;;;;;;;28.44;46.12;98418.22;5011722;28;913;-59
2022/09/27 11:46:36;;;;;;;;;;;;;;;28.50;46.06;98415.97;5011740;28;1972;-59
2022/09/27 11:49:22;;;;;;;;;;;;;;;28.20;45.91;98404.44;4994278;28;1196;-59
2022/09/27 11:51:51;;;;;;;;;;;;;;;27.66;47.40;98418.22;5012038;28;815;-59
2022/09/27 11:54:20;;;;;;;;;;;;;;;27.05;48.65;98424.03;5011812;28;787;-59
2022/09/27 11:56:56;;;;;;;;;;;;;;;26.37;50.66;98424.66;5011938;28;780;-59
2022/09/27 11:59:48;;;;;;;;;;;;;;;26.13;51.55;98422.81;4994077;28;1393;-59
2022/09/27 12:02:17;;;;;;;;;;;;;;;26.20;51.75;98420.13;5011753;28;901;-60
2022/09/27 12:04:43;;;;;;;;;;;;;;;26.45;50.99;98414.22;5011658;28;913;-59
2022/09/27 12:07:10;;;;;;;;;;;;;;;26.75;50.36;98413.84;5011614;28;1945;-59
2022/09/27 12:09:39;;;;;;;;;;;;;;;26.90;49.75;98407.59;5011840;28;862;-60
2022/09/27 12:12:15;;;;;;;;;;;;;;;26.94;49.63;98413.69;5011695;28;838;-59
2022/09/27 12:14:52;;;;;;;;;;;;;;;27.14;49.17;98412.22;5012161;28;788;-60
2022/09/27 12:17:21;;;;;;;;;;;;;;;27.01;49.32;98406.59;5011593;28;871;-59
2022/09/27 12:19:50;;;;;;;;;;;;;;;26.61;50.16;98415.22;5011717;28;858;-60
2022/09/27 12:22:23;;;;;;;;;;;;;;;26.30;50.88;98391.34;5011492;28;783;-60
2022/09/27 12:24:50;;;;;;;;;;;;;;;26.56;50.55;98394.16;5011516;28;878;-59
2022/09/27 12:27:26;;;;;;;;;;;;;;;27.13;49.21;98398.59;5011289;28;1902;-60
2022/09/27 12:29:55;;;;;;;;;;;;;;;27.20;48.31;98393.00;5011490;28;839;-62
2022/09/27 12:32:25;;;;;;;;;;;;;;;27.40;48.13;98397.19;5011543;28;1003;-59
2022/09/27 12:34:56;;;;;;;;;;;;;;;27.39;47.94;98398.50;5011268;28;1270;-60
2022/09/27 12:37:26;;;;;;;;;;;;;;;27.03;48.88;98384.88;5011504;28;858;-59
2022/09/27 12:39:59;;;;;;;;;;;;;;;26.79;49.31;98400.13;5011668;28;811;-59
2022/09/27 12:54:47;;;;;;;;;;;;;;;26.14;50.80;98398.84;5011876;28;617;-60
2022/09/27 12:57:14;;;;;;;;;;;;;;;25.81;52.08;98401.75;5014301;28;819;-60
2022/09/27 12:59:46;;;;;;;;;;;;;;;25.54;52.57;98400.97;5014833;28;834;-60
2022/09/27 13:02:36;;;;;;;;;;;;;;;25.30;53.31;98404.66;5014733;28;845;-60
2022/09/27 13:05:21;;;;;;;;;;;;;;;25.12;53.53;98413.94;5004673;28;1042;-59
2022/09/27 13:07:58;;;;;;;;;;;;;;;24.98;53.95;98408.19;5014624;28;917;-59
2022/09/27 13:10:44;;;;;;;;;;;;;;;24.91;54.43;98414.47;5014572;28;806;-59
2022/09/27 13:13:12;;;;;;;;;;;;;;;24.86;55.03;98407.63;5015045;28;893;-59
2022/09/27 13:15:39;;;;;;;;;;;;;;;24.81;55.45;98405.63;5014532;28;886;-60
2022/09/27 13:18:26;;;;;;;;;;;;;;;24.82;55.86;98412.06;5014486;28;819;-59
2022/09/27 13:20:54;;;;;;;;;;;;;;;24.57;55.81;98383.09;5014460;28;1240;-60
2022/09/27 13:23:21;;;;;;;;;;;;;;;24.67;56.27;98406.84;5014349;28;921;-59
2022/09/27 13:25:52;;;;;;;;;;;;;;;24.67;56.34;98406.09;5014266;28;1943;-59
2022/09/27 13:28:32;;;;;;;;;;;;;;;24.83;55.79;98402.25;5014257;28;795;-59
2022/09/27 13:30:59;;;;;;;;;;;;;;;25.12;55.08;98405.47;5014361;28;831;-59
2022/09/27 13:33:46;;;;;;;;;;;;;;;25.43;54.28;98409.59;5014262;28;1191;-60
2022/09/27 13:36:27;;;;;;;;;;;;;;;25.81;52.89;98396.09;5014114;28;854;-61
2022/09/27 13:39:10;;;;;;;;;;;;;;;26.36;51.65;98389.94;5014126;28;842;-61
2022/09/27 13:41:42;;;;;;;;;;;;;;;27.53;48.97;98389.94;4996390;28;1470;-59
2022/09/27 13:44:12;;;;;;;;;;;;;;;27.63;47.82;98386.03;5013970;28;839;-59
2022/09/27 13:46:50;;;;;;;;;;;;;;;27.18;48.44;98380.69;5014096;28;1965;-59
2022/09/27 13:49:20;;;;;;;;;;;;;;;27.49;48.19;98356.97;5014102;28;818;-60
2022/09/27 13:51:52;;;;;;;;;;;;;;;28.05;46.75;98357.56;5013835;28;799;-60
2022/09/27 13:54:37;;;;;;;;;;;;;;;28.36;45.86;98360.59;5013910;28;854;-59
2022/09/27 13:57:24;;;;;;;;;;;;;;;27.51;46.75;98364.19;5013812;28;893;-59
2022/09/27 13:59:54;;;;;;;;;;;;;;;26.88;48.43;98347.88;5013760;28;1012;-61
2022/09/27 14:02:35;;;;;;;;;;;;;;;26.32;50.02;98355.50;5013592;28;803;-59
2022/09/27 14:05:03;;;;;;;;;;;;;;;25.99;50.98;98359.78;5013587;28;783;-60
2022/09/27 14:07:35;;;;;;;;;;;;;;;25.68;51.88;98356.47;5012786;28;2017;-60
2022/09/27 14:10:03;;;;;;;;;;;;;;;25.45;52.69;98351.22;5013494;28;803;-60
2022/09/27 14:12:34;;;;;;;;;;;;;;;25.26;53.69;98348.47;5013356;28;938;-60
2022/09/27 14:15:01;;;;;;;;;;;;;;;25.09;54.49;98356.41;4995853;28;1220;-59